SBI005 UNKL-UNNT
Flight info
| Callsign | SBI005 |
|---|---|
| Flight time | N/A |
| Altitude | 36000 |
| Route | APRUS2F APRUS B926 NATIR NATIR1P |
| Aircraft | A321/M-SDE3FGHIRWY/LB1 |
Departure
| Time | 2026-05-01 14:33 |
|---|---|
| Airport | Krasnoyarsk International Airport (UNKL) |
Arrival
| Time | N/A |
|---|---|
| Airport | Novosibirsk Tolmachevo Airport (UNNT) |
| Time | Latitude | Longitude | Altitude | Speed | Heading |
|---|---|---|---|---|---|
| 2026-05-01 12:51 | 56.17944 | 92.48541 | 953 ft | 0 kts | 23° |
| 2026-05-01 14:14 | 56.17930 | 92.48530 | 953 ft | 4 kts | 23° |
| 2026-05-01 14:14 | 56.17908 | 92.48513 | 955 ft | 3 kts | 24° |
| 2026-05-01 14:15 | 56.17886 | 92.48490 | 955 ft | 4 kts | 48° |
| 2026-05-01 14:15 | 56.17875 | 92.48451 | 955 ft | 4 kts | 92° |
| 2026-05-01 14:15 | 56.17881 | 92.48405 | 952 ft | 4 kts | 118° |
| 2026-05-01 14:15 | 56.17895 | 92.48364 | 955 ft | 4 kts | 116° |
| 2026-05-01 14:16 | 56.17899 | 92.48349 | 956 ft | 0 kts | 109° |
| 2026-05-01 14:20 | 56.17899 | 92.48350 | 956 ft | 1 kts | 109° |
| 2026-05-01 14:20 | 56.17893 | 92.48377 | 953 ft | 3 kts | 111° |
| 2026-05-01 14:20 | 56.17884 | 92.48415 | 952 ft | 4 kts | 111° |
| 2026-05-01 14:21 | 56.17868 | 92.48465 | 955 ft | 5 kts | 142° |
| 2026-05-01 14:21 | 56.17831 | 92.48457 | 953 ft | 6 kts | 203° |
| 2026-05-01 14:21 | 56.17787 | 92.48422 | 955 ft | 8 kts | 203° |
| 2026-05-01 14:22 | 56.17710 | 92.48520 | 954 ft | 10 kts | 111° |
| 2026-05-01 14:22 | 56.17683 | 92.48640 | 956 ft | 11 kts | 113° |
| 2026-05-01 14:22 | 56.17650 | 92.48777 | 955 ft | 13 kts | 113° |
| 2026-05-01 14:22 | 56.17614 | 92.48930 | 954 ft | 14 kts | 113° |
| 2026-05-01 14:23 | 56.17574 | 92.49098 | 956 ft | 15 kts | 113° |
| 2026-05-01 14:23 | 56.17531 | 92.49281 | 957 ft | 17 kts | 113° |
| 2026-05-01 14:23 | 56.17485 | 92.49475 | 954 ft | 18 kts | 113° |
| 2026-05-01 14:23 | 56.17452 | 92.49618 | 953 ft | 10 kts | 112° |
| 2026-05-01 14:24 | 56.17422 | 92.49745 | 952 ft | 12 kts | 113° |
| 2026-05-01 14:24 | 56.17388 | 92.49887 | 957 ft | 13 kts | 113° |
| 2026-05-01 14:24 | 56.17351 | 92.50045 | 955 ft | 14 kts | 113° |
| 2026-05-01 14:24 | 56.17310 | 92.50218 | 955 ft | 16 kts | 113° |
| 2026-05-01 14:25 | 56.17265 | 92.50405 | 955 ft | 17 kts | 113° |
| 2026-05-01 14:25 | 56.17217 | 92.50606 | 957 ft | 18 kts | 113° |
| 2026-05-01 14:25 | 56.17167 | 92.50817 | 954 ft | 19 kts | 113° |
| 2026-05-01 14:25 | 56.17113 | 92.51042 | 957 ft | 20 kts | 113° |
| 2026-05-01 14:26 | 56.17056 | 92.51280 | 957 ft | 21 kts | 113° |
| 2026-05-01 14:26 | 56.16938 | 92.51773 | 953 ft | 15 kts | 113° |
| 2026-05-01 14:26 | 56.16899 | 92.51942 | 957 ft | 15 kts | 113° |
| 2026-05-01 14:27 | 56.16856 | 92.52008 | 954 ft | 1 kts | 164° |
| 2026-05-01 14:27 | 56.16840 | 92.52013 | 955 ft | 3 kts | 171° |
| 2026-05-01 14:27 | 56.16832 | 92.52015 | 955 ft | 0 kts | 171° |
| 2026-05-01 14:30 | 56.16825 | 92.52017 | 954 ft | 2 kts | 172° |
| 2026-05-01 14:30 | 56.16800 | 92.52023 | 954 ft | 5 kts | 173° |
| 2026-05-01 14:30 | 56.16754 | 92.52033 | 954 ft | 8 kts | 173° |
| 2026-05-01 14:31 | 56.16678 | 92.51925 | 955 ft | 6 kts | 291° |
| 2026-05-01 14:31 | 56.16679 | 92.51919 | 955 ft | 0 kts | 291° |
| 2026-05-01 14:32 | 56.16680 | 92.51915 | 955 ft | 3 kts | 291° |
| 2026-05-01 14:32 | 56.16721 | 92.51742 | 956 ft | 48 kts | 293° |
| 2026-05-01 14:32 | 56.17068 | 92.50282 | 952 ft | 138 kts | 293° |
| 2026-05-01 14:32 | 56.17512 | 92.48428 | 1107 ft | 173 kts | 294° |
| 2026-05-01 14:33 | 56.17993 | 92.46470 | 1822 ft | 172 kts | 294° |
| 2026-05-01 14:33 | 56.18468 | 92.44493 | 2469 ft | 174 kts | 293° |
| 2026-05-01 14:33 | 56.18968 | 92.42399 | 2725 ft | 196 kts | 293° |
| 2026-05-01 14:33 | 56.19529 | 92.40005 | 2932 ft | 219 kts | 292° |
| 2026-05-01 14:34 | 56.20141 | 92.37367 | 3215 ft | 237 kts | 292° |
| 2026-05-01 14:34 | 56.20789 | 92.34620 | 3965 ft | 238 kts | 293° |
| 2026-05-01 14:34 | 56.21448 | 92.31840 | 4554 ft | 251 kts | 291° |
| 2026-05-01 14:34 | 56.21710 | 92.28682 | 4992 ft | 264 kts | 259° |
| 2026-05-01 14:35 | 56.21185 | 92.25504 | 5684 ft | 267 kts | 250° |
| 2026-05-01 14:35 | 56.20486 | 92.22398 | 6462 ft | 269 kts | 248° |
| 2026-05-01 14:35 | 56.19739 | 92.19289 | 6872 ft | 272 kts | 248° |
| 2026-05-01 14:35 | 56.19000 | 92.16193 | 7385 ft | 274 kts | 248° |
| 2026-05-01 14:36 | 56.18267 | 92.13038 | 8156 ft | 274 kts | 249° |
| 2026-05-01 14:36 | 56.17543 | 92.09838 | 8616 ft | 278 kts | 250° |
| 2026-05-01 14:36 | 56.16829 | 92.06629 | 8873 ft | 277 kts | 250° |
| 2026-05-01 14:36 | 56.16123 | 92.03408 | 9055 ft | 278 kts | 250° |
| 2026-05-01 14:37 | 56.15418 | 92.00171 | 9296 ft | 281 kts | 250° |
| 2026-05-01 14:37 | 56.14709 | 91.96910 | 10083 ft | 281 kts | 251° |
| 2026-05-01 14:37 | 56.13983 | 91.93562 | 10388 ft | 299 kts | 251° |
| 2026-05-01 14:37 | 56.13472 | 91.91203 | 10480 ft | 313 kts | 251° |
| 2026-05-01 14:38 | 56.12381 | 91.86184 | 10728 ft | 336 kts | 251° |
| 2026-05-01 14:38 | 56.11520 | 91.82243 | 11242 ft | 342 kts | 251° |
| 2026-05-01 14:38 | 56.10645 | 91.78258 | 11833 ft | 345 kts | 251° |
| 2026-05-01 14:38 | 56.09758 | 91.74244 | 12442 ft | 348 kts | 251° |
| 2026-05-01 14:39 | 56.08864 | 91.70207 | 13039 ft | 351 kts | 251° |
| 2026-05-01 14:39 | 56.08265 | 91.67508 | 13476 ft | 352 kts | 251° |
| 2026-05-01 14:39 | 56.07359 | 91.63427 | 14083 ft | 354 kts | 251° |
| 2026-05-01 14:39 | 56.06445 | 91.59316 | 14623 ft | 356 kts | 251° |
| 2026-05-01 14:40 | 56.05526 | 91.55180 | 15147 ft | 359 kts | 252° |
| 2026-05-01 14:40 | 56.04300 | 91.49658 | 15862 ft | 362 kts | 252° |
| 2026-05-01 14:40 | 56.03366 | 91.45463 | 16372 ft | 365 kts | 252° |
| 2026-05-01 14:40 | 56.02729 | 91.42609 | 16708 ft | 367 kts | 252° |
| 2026-05-01 14:41 | 56.01777 | 91.38352 | 17228 ft | 370 kts | 252° |
| 2026-05-01 14:41 | 56.00819 | 91.34076 | 17750 ft | 372 kts | 252° |
| 2026-05-01 14:41 | 55.99863 | 91.29828 | 18258 ft | 375 kts | 252° |
| 2026-05-01 14:41 | 55.98888 | 91.25492 | 18706 ft | 377 kts | 252° |
| 2026-05-01 14:42 | 55.98125 | 91.21024 | 19111 ft | 375 kts | 262° |
| 2026-05-01 14:42 | 55.97600 | 91.16452 | 19533 ft | 378 kts | 262° |
| 2026-05-01 14:42 | 55.97063 | 91.11850 | 19945 ft | 380 kts | 262° |
| 2026-05-01 14:42 | 55.96519 | 91.07223 | 20388 ft | 382 kts | 262° |
| 2026-05-01 14:43 | 55.95969 | 91.02577 | 20802 ft | 384 kts | 262° |
| 2026-05-01 14:43 | 55.95416 | 90.97904 | 21208 ft | 386 kts | 262° |
| 2026-05-01 14:43 | 55.94866 | 90.93267 | 21616 ft | 388 kts | 262° |
| 2026-05-01 14:43 | 55.94302 | 90.88542 | 22005 ft | 391 kts | 262° |
| 2026-05-01 14:44 | 55.93730 | 90.83788 | 22402 ft | 393 kts | 262° |
| 2026-05-01 14:44 | 55.92574 | 90.74197 | 23189 ft | 398 kts | 261° |
| 2026-05-01 14:44 | 55.91988 | 90.69362 | 23580 ft | 400 kts | 261° |
| 2026-05-01 14:45 | 55.91398 | 90.64491 | 23917 ft | 403 kts | 262° |
| 2026-05-01 14:45 | 55.90205 | 90.54689 | 24589 ft | 406 kts | 262° |
| 2026-05-01 14:45 | 55.89602 | 90.49777 | 24955 ft | 407 kts | 262° |
| 2026-05-01 14:46 | 55.88993 | 90.44853 | 25291 ft | 408 kts | 262° |
| 2026-05-01 14:46 | 55.87770 | 90.35012 | 25933 ft | 411 kts | 262° |
| 2026-05-01 14:46 | 55.87151 | 90.30031 | 26247 ft | 413 kts | 262° |
| 2026-05-01 14:47 | 55.86526 | 90.25025 | 26565 ft | 415 kts | 262° |
| 2026-05-01 14:47 | 55.85898 | 90.20010 | 26874 ft | 416 kts | 262° |
| 2026-05-01 14:47 | 55.85264 | 90.14970 | 27177 ft | 418 kts | 262° |
| 2026-05-01 14:48 | 55.83989 | 90.04833 | 27787 ft | 422 kts | 261° |
| 2026-05-01 14:48 | 55.83345 | 89.99729 | 28090 ft | 423 kts | 261° |
| 2026-05-01 14:48 | 55.82042 | 89.89495 | 28686 ft | 425 kts | 261° |
| 2026-05-01 14:49 | 55.80715 | 89.79274 | 29222 ft | 428 kts | 261° |
| 2026-05-01 14:49 | 55.79366 | 89.68922 | 29707 ft | 431 kts | 261° |
| 2026-05-01 14:50 | 55.78238 | 89.60278 | 30109 ft | 432 kts | 261° |
| 2026-05-01 14:50 | 55.76640 | 89.48125 | 30717 ft | 431 kts | 261° |
| 2026-05-01 14:51 | 55.75958 | 89.42948 | 30986 ft | 431 kts | 261° |
| 2026-05-01 14:51 | 55.74604 | 89.32691 | 31541 ft | 429 kts | 261° |
| 2026-05-01 14:52 | 55.73234 | 89.22419 | 32103 ft | 427 kts | 261° |
| 2026-05-01 14:52 | 55.72548 | 89.17305 | 32377 ft | 426 kts | 261° |
| 2026-05-01 14:52 | 55.71162 | 89.07119 | 32915 ft | 424 kts | 261° |
| 2026-05-01 14:53 | 55.70464 | 89.02045 | 33172 ft | 423 kts | 261° |
| 2026-05-01 14:53 | 55.69768 | 88.96982 | 33442 ft | 422 kts | 261° |
| 2026-05-01 14:53 | 55.69074 | 88.91930 | 33707 ft | 421 kts | 262° |
| 2026-05-01 14:53 | 55.68390 | 88.86886 | 33952 ft | 420 kts | 261° |
| 2026-05-01 14:54 | 55.67714 | 88.81925 | 34176 ft | 420 kts | 261° |
| 2026-05-01 14:54 | 55.67025 | 88.76900 | 34389 ft | 420 kts | 261° |
| 2026-05-01 14:54 | 55.66337 | 88.71879 | 34586 ft | 419 kts | 261° |
| 2026-05-01 14:54 | 55.65650 | 88.66860 | 34781 ft | 419 kts | 261° |
| 2026-05-01 14:55 | 55.64959 | 88.61843 | 34980 ft | 419 kts | 261° |
| 2026-05-01 14:55 | 55.64264 | 88.56833 | 35173 ft | 419 kts | 261° |
| 2026-05-01 14:55 | 55.63564 | 88.51819 | 35368 ft | 419 kts | 261° |
| 2026-05-01 14:55 | 55.62863 | 88.46819 | 35563 ft | 419 kts | 261° |
| 2026-05-01 14:56 | 55.62158 | 88.41814 | 35755 ft | 419 kts | 261° |
| 2026-05-01 14:56 | 55.61451 | 88.36822 | 35952 ft | 419 kts | 261° |
| 2026-05-01 14:56 | 55.60745 | 88.31815 | 36056 ft | 419 kts | 260° |
| 2026-05-01 14:57 | 55.59342 | 88.21918 | 36095 ft | 417 kts | 260° |
| 2026-05-01 14:57 | 55.57209 | 88.07022 | 36082 ft | 417 kts | 260° |
| 2026-05-01 14:58 | 55.55779 | 87.97108 | 36092 ft | 417 kts | 260° |
| 2026-05-01 14:58 | 55.54343 | 87.87200 | 36081 ft | 417 kts | 260° |
| 2026-05-01 14:59 | 55.52906 | 87.77354 | 36080 ft | 417 kts | 259° |
| 2026-05-01 14:59 | 55.51451 | 87.67433 | 36088 ft | 418 kts | 259° |
| 2026-05-01 15:00 | 55.49239 | 87.52541 | 36071 ft | 419 kts | 259° |
| 2026-05-01 15:01 | 55.47748 | 87.42598 | 36076 ft | 420 kts | 258° |
| 2026-05-01 15:01 | 55.46241 | 87.32629 | 36073 ft | 422 kts | 258° |
| 2026-05-01 15:02 | 55.44724 | 87.22708 | 36079 ft | 422 kts | 258° |
| 2026-05-01 15:02 | 55.43195 | 87.12722 | 36077 ft | 423 kts | 258° |
| 2026-05-01 15:03 | 55.41656 | 87.02721 | 36075 ft | 423 kts | 258° |
| 2026-05-01 15:03 | 55.40108 | 86.92718 | 36079 ft | 424 kts | 258° |
| 2026-05-01 15:04 | 55.38550 | 86.82717 | 36082 ft | 424 kts | 258° |
| 2026-05-01 15:04 | 55.36994 | 86.72788 | 36079 ft | 424 kts | 257° |
| 2026-05-01 15:05 | 55.35416 | 86.62795 | 36064 ft | 424 kts | 257° |
| 2026-05-01 15:05 | 55.33832 | 86.52799 | 36067 ft | 425 kts | 257° |
| 2026-05-01 15:06 | 55.32240 | 86.42796 | 36066 ft | 425 kts | 257° |
| 2026-05-01 15:06 | 55.30645 | 86.32860 | 36070 ft | 426 kts | 257° |
| 2026-05-01 15:07 | 55.29029 | 86.22861 | 36079 ft | 426 kts | 256° |
| 2026-05-01 15:07 | 55.27406 | 86.12864 | 36078 ft | 426 kts | 258° |
| 2026-05-01 15:08 | 55.26667 | 86.02628 | 36077 ft | 424 kts | 266° |
| 2026-05-01 15:08 | 55.26187 | 85.92330 | 36077 ft | 424 kts | 266° |
| 2026-05-01 15:09 | 55.25689 | 85.82102 | 36078 ft | 424 kts | 266° |
| 2026-05-01 15:09 | 55.25176 | 85.71806 | 36073 ft | 424 kts | 266° |
| 2026-05-01 15:10 | 55.24654 | 85.61503 | 36069 ft | 424 kts | 266° |
| 2026-05-01 15:10 | 55.23863 | 85.46055 | 36060 ft | 424 kts | 265° |
| 2026-05-01 15:11 | 55.23058 | 85.30691 | 35635 ft | 423 kts | 265° |
| 2026-05-01 15:11 | 55.22786 | 85.25561 | 35384 ft | 422 kts | 265° |
| 2026-05-01 15:12 | 55.22510 | 85.20439 | 35135 ft | 422 kts | 265° |
| 2026-05-01 15:12 | 55.21950 | 85.10198 | 34605 ft | 422 kts | 265° |
| 2026-05-01 15:12 | 55.21665 | 85.05083 | 33863 ft | 424 kts | 265° |
| 2026-05-01 15:13 | 55.20799 | 84.89648 | 31470 ft | 426 kts | 264° |
| 2026-05-01 15:14 | 55.20220 | 84.79533 | 30501 ft | 415 kts | 264° |
| 2026-05-01 15:14 | 55.19929 | 84.74527 | 29979 ft | 411 kts | 264° |
| 2026-05-01 15:14 | 55.18713 | 84.64930 | 28902 ft | 400 kts | 251° |
| 2026-05-01 15:15 | 55.16924 | 84.55858 | 27868 ft | 389 kts | 251° |
| 2026-05-01 15:15 | 55.15189 | 84.47012 | 26855 ft | 380 kts | 250° |
| 2026-05-01 15:16 | 55.13483 | 84.38365 | 25874 ft | 373 kts | 250° |
| 2026-05-01 15:16 | 55.11804 | 84.29943 | 24942 ft | 366 kts | 250° |
| 2026-05-01 15:17 | 55.10135 | 84.21605 | 24028 ft | 361 kts | 250° |
| 2026-05-01 15:18 | 55.07665 | 84.09309 | 22673 ft | 354 kts | 250° |
| 2026-05-01 15:18 | 55.06853 | 84.05276 | 22252 ft | 351 kts | 250° |
| 2026-05-01 15:19 | 55.04456 | 83.93426 | 21022 ft | 343 kts | 250° |
| 2026-05-01 15:19 | 55.02877 | 83.85661 | 20184 ft | 337 kts | 250° |
| 2026-05-01 15:19 | 55.02096 | 83.81829 | 19767 ft | 334 kts | 250° |
| 2026-05-01 15:20 | 55.00533 | 83.74271 | 18893 ft | 329 kts | 250° |
| 2026-05-01 15:20 | 54.99756 | 83.70541 | 18479 ft | 326 kts | 250° |
| 2026-05-01 15:20 | 54.98986 | 83.66845 | 18011 ft | 324 kts | 250° |
| 2026-05-01 15:21 | 54.98221 | 83.63177 | 17556 ft | 321 kts | 250° |
| 2026-05-01 15:21 | 54.97459 | 83.59535 | 17111 ft | 319 kts | 250° |
| 2026-05-01 15:21 | 54.96704 | 83.55910 | 16676 ft | 317 kts | 250° |
| 2026-05-01 15:21 | 54.95961 | 83.52356 | 16248 ft | 316 kts | 250° |
| 2026-05-01 15:22 | 54.94464 | 83.45224 | 15383 ft | 312 kts | 250° |
| 2026-05-01 15:22 | 54.93723 | 83.41694 | 14934 ft | 310 kts | 249° |
| 2026-05-01 15:22 | 54.92973 | 83.38122 | 14632 ft | 323 kts | 249° |
| 2026-05-01 15:23 | 54.92187 | 83.34399 | 14391 ft | 331 kts | 249° |
| 2026-05-01 15:23 | 54.91390 | 83.30630 | 13765 ft | 336 kts | 249° |
| 2026-05-01 15:23 | 54.90572 | 83.26777 | 13014 ft | 338 kts | 249° |
| 2026-05-01 15:23 | 54.89779 | 83.23054 | 12624 ft | 329 kts | 249° |
| 2026-05-01 15:24 | 54.88991 | 83.19356 | 12172 ft | 323 kts | 249° |
| 2026-05-01 15:24 | 54.88217 | 83.15728 | 11720 ft | 318 kts | 248° |
| 2026-05-01 15:24 | 54.87456 | 83.12151 | 11277 ft | 313 kts | 249° |
| 2026-05-01 15:24 | 54.86962 | 83.08495 | 10838 ft | 311 kts | 261° |
| 2026-05-01 15:25 | 54.86948 | 83.04758 | 10483 ft | 308 kts | 274° |
| 2026-05-01 15:25 | 54.87316 | 83.01175 | 10354 ft | 295 kts | 278° |
| 2026-05-01 15:25 | 54.87699 | 82.97727 | 10086 ft | 288 kts | 277° |
| 2026-05-01 15:25 | 54.88064 | 82.94337 | 9900 ft | 284 kts | 277° |
| 2026-05-01 15:26 | 54.88420 | 82.91001 | 9790 ft | 285 kts | 277° |
| 2026-05-01 15:26 | 54.88778 | 82.87621 | 9627 ft | 285 kts | 277° |
| 2026-05-01 15:26 | 54.89137 | 82.84239 | 9287 ft | 284 kts | 277° |
| 2026-05-01 15:26 | 54.89493 | 82.80879 | 8899 ft | 282 kts | 277° |
| 2026-05-01 15:27 | 54.89847 | 82.77533 | 8514 ft | 281 kts | 277° |
| 2026-05-01 15:27 | 54.90201 | 82.74194 | 8134 ft | 281 kts | 277° |
| 2026-05-01 15:27 | 54.90455 | 82.70848 | 7761 ft | 278 kts | 270° |
| 2026-05-01 15:28 | 54.90615 | 82.64142 | 7118 ft | 277 kts | 268° |
| 2026-05-01 15:28 | 54.90685 | 82.60791 | 6878 ft | 278 kts | 268° |
| 2026-05-01 15:28 | 54.90755 | 82.57478 | 6561 ft | 278 kts | 268° |
| 2026-05-01 15:29 | 54.90903 | 82.50789 | 6051 ft | 277 kts | 268° |
| 2026-05-01 15:29 | 54.90980 | 82.47444 | 5783 ft | 277 kts | 268° |
| 2026-05-01 15:29 | 54.91126 | 82.40752 | 5287 ft | 276 kts | 263° |
| 2026-05-01 15:30 | 54.90239 | 82.34407 | 4812 ft | 268 kts | 248° |
| 2026-05-01 15:31 | 54.88165 | 82.22052 | 3974 ft | 267 kts | 248° |
| 2026-05-01 15:31 | 54.87136 | 82.15855 | 3984 ft | 268 kts | 248° |
| 2026-05-01 15:32 | 54.86107 | 82.09653 | 3976 ft | 268 kts | 248° |
| 2026-05-01 15:32 | 54.85189 | 82.03379 | 3971 ft | 273 kts | 262° |
| 2026-05-01 15:33 | 54.88508 | 81.95776 | 3979 ft | 295 kts | 344° |
| 2026-05-01 15:34 | 54.94526 | 81.93429 | 3975 ft | 296 kts | 348° |